sensor_id;sensor_type;location;lat;lon;timestamp;temperature;humidity
20658;DHT22;10488;50.846;4.078;2023-12-04T00:01:13;2.80;99.90
20658;DHT22;10488;50.846;4.078;2023-12-04T00:03:39;2.70;99.90
20658;DHT22;10488;50.846;4.078;2023-12-04T00:06:05;2.70;99.90
20658;DHT22;10488;50.846;4.078;2023-12-04T00:08:31;2.70;99.90
20658;DHT22;10488;50.846;4.078;2023-12-04T00:10:57;2.60;99.90
20658;DHT22;10488;50.846;4.078;2023-12-04T00:13:23;2.60;99.90
20658;DHT22;10488;50.846;4.078;2023-12-04T00:15:49;2.60;99.90
20658;DHT22;10488;50.846;4.078;2023-12-04T00:18:14;2.60;99.90
20658;DHT22;10488;50.846;4.078;2023-12-04T00:20:40;2.60;99.90
20658;DHT22;10488;50.846;4.078;2023-12-04T00:23:06;2.60;99.90
20658;DHT22;10488;50.846;4.078;2023-12-04T00:25:31;2.70;99.90
20658;DHT22;10488;50.846;4.078;2023-12-04T00:27:57;2.70;99.90
20658;DHT22;10488;50.846;4.078;2023-12-04T00:30:23;2.70;99.90
20658;DHT22;10488;50.846;4.078;2023-12-04T00:32:48;2.60;99.90
20658;DHT22;10488;50.846;4.078;2023-12-04T00:35:14;2.70;99.90
20658;DHT22;10488;50.846;4.078;2023-12-04T00:37:40;2.70;99.90
20658;DHT22;10488;50.846;4.078;2023-12-04T00:40:06;2.70;99.90
20658;DHT22;10488;50.846;4.078;2023-12-04T00:42:33;2.80;99.90
20658;DHT22;10488;50.846;4.078;2023-12-04T00:44:59;2.80;99.90
20658;DHT22;10488;50.846;4.078;2023-12-04T00:47:24;2.90;99.90
20658;DHT22;10488;50.846;4.078;2023-12-04T00:49:50;2.90;99.90
20658;DHT22;10488;50.846;4.078;2023-12-04T00:52:16;2.90;99.90
20658;DHT22;10488;50.846;4.078;2023-12-04T00:54:41;2.90;99.90
20658;DHT22;10488;50.846;4.078;2023-12-04T00:57:08;2.80;99.90
20658;DHT22;10488;50.846;4.078;2023-12-04T00:59:33;2.80;99.90
20658;DHT22;10488;50.846;4.078;2023-12-04T01:01:59;2.80;99.90
20658;DHT22;10488;50.846;4.078;2023-12-04T01:04:25;2.90;99.90
20658;DHT22;10488;50.846;4.078;2023-12-04T01:06:51;2.90;99.90
20658;DHT22;10488;50.846;4.078;2023-12-04T01:09:17;2.90;99.90
20658;DHT22;10488;50.846;4.078;2023-12-04T01:11:43;2.90;99.90
20658;DHT22;10488;50.846;4.078;2023-12-04T01:14:09;2.90;99.90
20658;DHT22;10488;50.846;4.078;2023-12-04T01:16:35;3.00;99.90
20658;DHT22;10488;50.846;4.078;2023-12-04T01:19:00;3.00;99.90
20658;DHT22;10488;50.846;4.078;2023-12-04T01:21:26;3.00;99.90
20658;DHT22;10488;50.846;4.078;2023-12-04T01:23:52;3.00;99.90
20658;DHT22;10488;50.846;4.078;2023-12-04T01:26:17;3.10;99.90
20658;DHT22;10488;50.846;4.078;2023-12-04T01:28:43;3.00;99.90
20658;DHT22;10488;50.846;4.078;2023-12-04T01:31:09;3.10;99.90
20658;DHT22;10488;50.846;4.078;2023-12-04T01:33:34;3.10;99.90
20658;DHT22;10488;50.846;4.078;2023-12-04T01:36:01;3.10;99.90
20658;DHT22;10488;50.846;4.078;2023-12-04T01:38:27;3.20;99.90
20658;DHT22;10488;50.846;4.078;2023-12-04T01:40:53;3.20;99.90
20658;DHT22;10488;50.846;4.078;2023-12-04T01:43:19;3.30;99.90
20658;DHT22;10488;50.846;4.078;2023-12-04T01:45:45;3.20;99.90
20658;DHT22;10488;50.846;4.078;2023-12-04T01:48:11;3.10;99.90
20658;DHT22;10488;50.846;4.078;2023-12-04T01:50:39;3.10;99.90
20658;DHT22;10488;50.846;4.078;2023-12-04T01:53:05;3.10;99.90
20658;DHT22;10488;50.846;4.078;2023-12-04T01:55:32;3.10;99.90
20658;DHT22;10488;50.846;4.078;2023-12-04T01:58:00;3.10;99.90
20658;DHT22;10488;50.846;4.078;2023-12-04T02:00:29;3.20;99.90
20658;DHT22;10488;50.846;4.078;2023-12-04T02:02:56;3.20;99.90
20658;DHT22;10488;50.846;4.078;2023-12-04T02:05:22;3.20;99.90
20658;DHT22;10488;50.846;4.078;2023-12-04T02:07:48;3.10;99.90
20658;DHT22;10488;50.846;4.078;2023-12-04T02:10:14;3.00;99.90
20658;DHT22;10488;50.846;4.078;2023-12-04T02:12:40;3.00;99.90
20658;DHT22;10488;50.846;4.078;2023-12-04T02:15:06;2.90;99.90
20658;DHT22;10488;50.846;4.078;2023-12-04T02:17:32;2.90;99.90
20658;DHT22;10488;50.846;4.078;2023-12-04T02:19:59;3.00;99.90
20658;DHT22;10488;50.846;4.078;2023-12-04T02:22:25;3.00;99.90
20658;DHT22;10488;50.846;4.078;2023-12-04T02:24:50;2.90;99.90
20658;DHT22;10488;50.846;4.078;2023-12-04T02:27:23;3.00;99.90
20658;DHT22;10488;50.846;4.078;2023-12-04T02:30:01;3.00;99.90
20658;DHT22;10488;50.846;4.078;2023-12-04T02:32:32;3.00;99.90
20658;DHT22;10488;50.846;4.078;2023-12-04T02:35:02;3.10;99.90
20658;DHT22;10488;50.846;4.078;2023-12-04T02:37:29;3.20;99.90
20658;DHT22;10488;50.846;4.078;2023-12-04T02:39:55;3.20;99.90
20658;DHT22;10488;50.846;4.078;2023-12-04T02:42:22;3.30;99.90
20658;DHT22;10488;50.846;4.078;2023-12-04T02:44:50;3.30;99.90
20658;DHT22;10488;50.846;4.078;2023-12-04T02:47:16;3.20;99.90
20658;DHT22;10488;50.846;4.078;2023-12-04T02:49:42;3.20;99.90
20658;DHT22;10488;50.846;4.078;2023-12-04T02:52:08;3.20;99.90
20658;DHT22;10488;50.846;4.078;2023-12-04T02:54:34;3.30;99.90
20658;DHT22;10488;50.846;4.078;2023-12-04T02:56:59;3.20;99.90
20658;DHT22;10488;50.846;4.078;2023-12-04T02:59:25;3.20;99.90
20658;DHT22;10488;50.846;4.078;2023-12-04T03:01:51;3.30;99.90
20658;DHT22;10488;50.846;4.078;2023-12-04T03:04:16;3.40;99.90
20658;DHT22;10488;50.846;4.078;2023-12-04T03:06:42;3.30;99.90
20658;DHT22;10488;50.846;4.078;2023-12-04T03:09:08;3.30;99.90
20658;DHT22;10488;50.846;4.078;2023-12-04T03:11:33;3.40;99.90
20658;DHT22;10488;50.846;4.078;2023-12-04T03:14:00;3.30;99.90
20658;DHT22;10488;50.846;4.078;2023-12-04T03:16:27;3.30;99.90
20658;DHT22;10488;50.846;4.078;2023-12-04T03:18:52;3.30;99.90
20658;DHT22;10488;50.846;4.078;2023-12-04T03:21:18;3.30;99.90
20658;DHT22;10488;50.846;4.078;2023-12-04T03:23:43;3.40;99.90
20658;DHT22;10488;50.846;4.078;2023-12-04T03:26:09;3.40;99.90
20658;DHT22;10488;50.846;4.078;2023-12-04T03:28:35;3.40;99.90
20658;DHT22;10488;50.846;4.078;2023-12-04T03:31:01;3.30;99.90
20658;DHT22;10488;50.846;4.078;2023-12-04T03:33:27;3.40;99.90
20658;DHT22;10488;50.846;4.078;2023-12-04T03:35:53;3.40;99.90
20658;DHT22;10488;50.846;4.078;2023-12-04T03:38:18;3.40;99.90
20658;DHT22;10488;50.846;4.078;2023-12-04T03:40:44;3.30;99.90
20658;DHT22;10488;50.846;4.078;2023-12-04T03:43:10;3.40;99.90
20658;DHT22;10488;50.846;4.078;2023-12-04T03:45:35;3.40;99.90
20658;DHT22;10488;50.846;4.078;2023-12-04T03:48:01;3.30;99.90
20658;DHT22;10488;50.846;4.078;2023-12-04T03:50:27;3.30;99.90
20658;DHT22;10488;50.846;4.078;2023-12-04T03:52:52;3.30;99.90
20658;DHT22;10488;50.846;4.078;2023-12-04T03:55:18;3.40;99.90
20658;DHT22;10488;50.846;4.078;2023-12-04T03:57:45;3.40;99.90
20658;DHT22;10488;50.846;4.078;2023-12-04T04:00:11;3.40;99.90
20658;DHT22;10488;50.846;4.078;2023-12-04T04:02:39;3.40;99.90
20658;DHT22;10488;50.846;4.078;2023-12-04T04:05:05;3.40;99.90
20658;DHT22;10488;50.846;4.078;2023-12-04T04:07:31;3.30;99.90
20658;DHT22;10488;50.846;4.078;2023-12-04T04:09:57;3.30;99.90
20658;DHT22;10488;50.846;4.078;2023-12-04T04:12:22;3.40;99.90
20658;DHT22;10488;50.846;4.078;2023-12-04T04:14:48;3.40;99.90
20658;DHT22;10488;50.846;4.078;2023-12-04T04:17:14;3.40;99.90
20658;DHT22;10488;50.846;4.078;2023-12-04T04:19:40;3.40;99.90
20658;DHT22;10488;50.846;4.078;2023-12-04T04:22:06;3.40;99.90
20658;DHT22;10488;50.846;4.078;2023-12-04T04:24:32;3.40;99.90
20658;DHT22;10488;50.846;4.078;2023-12-04T04:26:58;3.50;99.90
20658;DHT22;10488;50.846;4.078;2023-12-04T04:29:23;3.40;99.90
20658;DHT22;10488;50.846;4.078;2023-12-04T04:31:50;3.40;99.90
20658;DHT22;10488;50.846;4.078;2023-12-04T04:34:15;3.30;99.90
20658;DHT22;10488;50.846;4.078;2023-12-04T04:36:42;3.30;99.90
20658;DHT22;10488;50.846;4.078;2023-12-04T04:39:10;3.30;99.90
20658;DHT22;10488;50.846;4.078;2023-12-04T04:41:36;3.40;99.90
20658;DHT22;10488;50.846;4.078;2023-12-04T04:44:02;3.40;99.90
20658;DHT22;10488;50.846;4.078;2023-12-04T04:46:27;3.40;99.90
20658;DHT22;10488;50.846;4.078;2023-12-04T04:48:53;3.40;99.90
20658;DHT22;10488;50.846;4.078;2023-12-04T04:51:19;3.40;99.90
20658;DHT22;10488;50.846;4.078;2023-12-04T04:53:45;3.50;99.90
20658;DHT22;10488;50.846;4.078;2023-12-04T04:56:11;3.40;99.90
20658;DHT22;10488;50.846;4.078;2023-12-04T04:58:36;3.40;99.90
20658;DHT22;10488;50.846;4.078;2023-12-04T05:01:02;3.40;99.90
20658;DHT22;10488;50.846;4.078;2023-12-04T05:03:28;3.50;99.90
20658;DHT22;10488;50.846;4.078;2023-12-04T05:05:54;3.40;99.90
20658;DHT22;10488;50.846;4.078;2023-12-04T05:08:19;3.60;99.90
20658;DHT22;10488;50.846;4.078;2023-12-04T05:10:45;3.70;99.90
20658;DHT22;10488;50.846;4.078;2023-12-04T05:13:11;3.50;99.90
20658;DHT22;10488;50.846;4.078;2023-12-04T05:15:36;3.50;99.90
20658;DHT22;10488;50.846;4.078;2023-12-04T05:18:02;3.50;99.90
20658;DHT22;10488;50.846;4.078;2023-12-04T05:20:28;3.50;99.90
20658;DHT22;10488;50.846;4.078;2023-12-04T05:22:53;3.50;99.90
20658;DHT22;10488;50.846;4.078;2023-12-04T05:25:19;3.60;99.90
20658;DHT22;10488;50.846;4.078;2023-12-04T05:27:45;3.70;99.90
20658;DHT22;10488;50.846;4.078;2023-12-04T05:30:11;3.70;99.90
20658;DHT22;10488;50.846;4.078;2023-12-04T05:32:37;3.70;99.90
20658;DHT22;10488;50.846;4.078;2023-12-04T05:35:03;3.70;99.90
20658;DHT22;10488;50.846;4.078;2023-12-04T05:37:28;3.70;99.90
20658;DHT22;10488;50.846;4.078;2023-12-04T05:39:54;3.70;99.90
20658;DHT22;10488;50.846;4.078;2023-12-04T05:42:20;3.70;99.90
20658;DHT22;10488;50.846;4.078;2023-12-04T05:44:45;3.60;99.90
20658;DHT22;10488;50.846;4.078;2023-12-04T05:47:11;3.60;99.90
20658;DHT22;10488;50.846;4.078;2023-12-04T05:49:37;3.60;99.90
20658;DHT22;10488;50.846;4.078;2023-12-04T05:52:02;3.60;99.90
20658;DHT22;10488;50.846;4.078;2023-12-04T05:54:28;3.60;99.90
20658;DHT22;10488;50.846;4.078;2023-12-04T05:56:54;3.60;99.90
20658;DHT22;10488;50.846;4.078;2023-12-04T05:59:20;3.60;99.90
20658;DHT22;10488;50.846;4.078;2023-12-04T06:01:45;3.60;99.90
20658;DHT22;10488;50.846;4.078;2023-12-04T06:04:11;3.60;99.90
20658;DHT22;10488;50.846;4.078;2023-12-04T06:06:37;3.60;99.90
20658;DHT22;10488;50.846;4.078;2023-12-04T06:09:02;3.50;99.90
20658;DHT22;10488;50.846;4.078;2023-12-04T06:11:28;3.50;99.90
20658;DHT22;10488;50.846;4.078;2023-12-04T06:13:54;3.60;99.90
20658;DHT22;10488;50.846;4.078;2023-12-04T06:16:19;3.70;99.90
20658;DHT22;10488;50.846;4.078;2023-12-04T06:18:45;3.60;99.90
20658;DHT22;10488;50.846;4.078;2023-12-04T06:21:10;3.70;99.90
20658;DHT22;10488;50.846;4.078;2023-12-04T06:23:36;3.70;99.90
20658;DHT22;10488;50.846;4.078;2023-12-04T06:26:02;3.70;99.90
20658;DHT22;10488;50.846;4.078;2023-12-04T06:28:28;3.60;99.90
20658;DHT22;10488;50.846;4.078;2023-12-04T06:30:54;3.70;99.90
20658;DHT22;10488;50.846;4.078;2023-12-04T06:33:20;3.60;99.90
20658;DHT22;10488;50.846;4.078;2023-12-04T06:35:46;3.70;99.90
20658;DHT22;10488;50.846;4.078;2023-12-04T06:38:17;3.70;99.90
20658;DHT22;10488;50.846;4.078;2023-12-04T06:40:44;3.80;99.90
20658;DHT22;10488;50.846;4.078;2023-12-04T06:43:10;3.80;99.90
20658;DHT22;10488;50.846;4.078;2023-12-04T06:45:36;3.80;99.90
20658;DHT22;10488;50.846;4.078;2023-12-04T06:48:02;3.70;99.90
20658;DHT22;10488;50.846;4.078;2023-12-04T06:50:28;3.70;99.90
20658;DHT22;10488;50.846;4.078;2023-12-04T06:52:54;3.70;99.90
20658;DHT22;10488;50.846;4.078;2023-12-04T06:55:20;3.80;99.90
20658;DHT22;10488;50.846;4.078;2023-12-04T06:57:45;3.80;99.90
20658;DHT22;10488;50.846;4.078;2023-12-04T07:00:11;3.80;99.90
20658;DHT22;10488;50.846;4.078;2023-12-04T07:02:42;3.80;99.90
20658;DHT22;10488;50.846;4.078;2023-12-04T07:05:07;3.80;99.90
20658;DHT22;10488;50.846;4.078;2023-12-04T07:07:33;3.90;99.90
20658;DHT22;10488;50.846;4.078;2023-12-04T07:09:59;3.80;99.90
20658;DHT22;10488;50.846;4.078;2023-12-04T07:12:25;3.70;99.90
20658;DHT22;10488;50.846;4.078;2023-12-04T07:14:51;3.80;99.90
20658;DHT22;10488;50.846;4.078;2023-12-04T07:17:16;3.90;99.90
20658;DHT22;10488;50.846;4.078;2023-12-04T07:19:42;3.90;99.90
20658;DHT22;10488;50.846;4.078;2023-12-04T07:22:08;3.90;99.90
20658;DHT22;10488;50.846;4.078;2023-12-04T07:24:33;3.90;99.90
20658;DHT22;10488;50.846;4.078;2023-12-04T07:26:59;3.80;99.90
20658;DHT22;10488;50.846;4.078;2023-12-04T07:29:25;3.90;99.90
20658;DHT22;10488;50.846;4.078;2023-12-04T07:31:51;3.80;99.90
20658;DHT22;10488;50.846;4.078;2023-12-04T07:34:16;3.80;99.90
20658;DHT22;10488;50.846;4.078;2023-12-04T07:36:42;3.90;99.90
20658;DHT22;10488;50.846;4.078;2023-12-04T07:39:10;4.00;99.90
20658;DHT22;10488;50.846;4.078;2023-12-04T07:41:36;3.90;99.90
20658;DHT22;10488;50.846;4.078;2023-12-04T07:44:02;3.90;99.90
20658;DHT22;10488;50.846;4.078;2023-12-04T07:46:29;4.00;99.90
20658;DHT22;10488;50.846;4.078;2023-12-04T07:48:55;3.90;99.90
20658;DHT22;10488;50.846;4.078;2023-12-04T07:51:21;3.90;99.90
20658;DHT22;10488;50.846;4.078;2023-12-04T07:53:46;4.00;99.90
20658;DHT22;10488;50.846;4.078;2023-12-04T07:56:13;4.00;99.90
20658;DHT22;10488;50.846;4.078;2023-12-04T07:58:39;4.00;99.90
20658;DHT22;10488;50.846;4.078;2023-12-04T08:01:05;3.90;99.90
20658;DHT22;10488;50.846;4.078;2023-12-04T08:03:31;3.90;99.90
20658;DHT22;10488;50.846;4.078;2023-12-04T08:05:57;3.90;99.90
20658;DHT22;10488;50.846;4.078;2023-12-04T08:08:24;3.90;99.90
20658;DHT22;10488;50.846;4.078;2023-12-04T08:10:50;3.90;99.90
20658;DHT22;10488;50.846;4.078;2023-12-04T08:13:16;3.90;99.90
20658;DHT22;10488;50.846;4.078;2023-12-04T08:15:42;3.90;99.90
20658;DHT22;10488;50.846;4.078;2023-12-04T08:18:08;3.90;99.90
20658;DHT22;10488;50.846;4.078;2023-12-04T08:20:34;3.90;99.90
20658;DHT22;10488;50.846;4.078;2023-12-04T08:23:00;3.90;99.90
20658;DHT22;10488;50.846;4.078;2023-12-04T08:25:25;4.00;99.90
20658;DHT22;10488;50.846;4.078;2023-12-04T08:27:52;4.00;99.90
20658;DHT22;10488;50.846;4.078;2023-12-04T08:30:18;3.90;99.90
20658;DHT22;10488;50.846;4.078;2023-12-04T08:32:44;3.90;99.90
20658;DHT22;10488;50.846;4.078;2023-12-04T08:35:10;4.00;99.90
20658;DHT22;10488;50.846;4.078;2023-12-04T08:37:36;3.90;99.90
20658;DHT22;10488;50.846;4.078;2023-12-04T08:40:01;3.80;99.90
20658;DHT22;10488;50.846;4.078;2023-12-04T08:42:29;3.80;99.90
20658;DHT22;10488;50.846;4.078;2023-12-04T08:44:55;3.80;99.90
20658;DHT22;10488;50.846;4.078;2023-12-04T08:47:20;3.80;99.90
20658;DHT22;10488;50.846;4.078;2023-12-04T08:49:46;3.70;99.90
20658;DHT22;10488;50.846;4.078;2023-12-04T08:52:12;3.80;99.90
20658;DHT22;10488;50.846;4.078;2023-12-04T08:54:41;3.80;99.90
20658;DHT22;10488;50.846;4.078;2023-12-04T08:57:09;3.70;99.90
20658;DHT22;10488;50.846;4.078;2023-12-04T08:59:35;3.80;99.90
20658;DHT22;10488;50.846;4.078;2023-12-04T09:02:01;3.70;99.90
20658;DHT22;10488;50.846;4.078;2023-12-04T09:04:30;3.70;99.90
20658;DHT22;10488;50.846;4.078;2023-12-04T09:06:57;3.80;99.90
20658;DHT22;10488;50.846;4.078;2023-12-04T09:09:23;3.70;99.90
20658;DHT22;10488;50.846;4.078;2023-12-04T09:11:48;3.60;99.90
20658;DHT22;10488;50.846;4.078;2023-12-04T09:14:14;3.60;99.90
20658;DHT22;10488;50.846;4.078;2023-12-04T09:16:40;3.60;99.90
20658;DHT22;10488;50.846;4.078;2023-12-04T09:19:05;3.60;99.90
20658;DHT22;10488;50.846;4.078;2023-12-04T09:21:31;3.60;99.90
20658;DHT22;10488;50.846;4.078;2023-12-04T09:23:57;3.50;99.90
20658;DHT22;10488;50.846;4.078;2023-12-04T09:26:23;3.60;99.90
20658;DHT22;10488;50.846;4.078;2023-12-04T09:28:49;3.70;99.90
20658;DHT22;10488;50.846;4.078;2023-12-04T09:31:14;3.60;99.90
20658;DHT22;10488;50.846;4.078;2023-12-04T09:33:40;3.60;99.90
20658;DHT22;10488;50.846;4.078;2023-12-04T09:36:06;3.70;99.90
20658;DHT22;10488;50.846;4.078;2023-12-04T09:38:32;3.70;99.90
20658;DHT22;10488;50.846;4.078;2023-12-04T09:41:01;3.70;99.90
20658;DHT22;10488;50.846;4.078;2023-12-04T09:43:31;3.70;99.90
20658;DHT22;10488;50.846;4.078;2023-12-04T09:45:58;3.60;99.90
20658;DHT22;10488;50.846;4.078;2023-12-04T09:48:27;3.60;99.90
20658;DHT22;10488;50.846;4.078;2023-12-04T09:50:55;3.60;99.90
20658;DHT22;10488;50.846;4.078;2023-12-04T09:53:21;3.50;99.90
20658;DHT22;10488;50.846;4.078;2023-12-04T09:55:51;3.40;99.90
20658;DHT22;10488;50.846;4.078;2023-12-04T09:58:19;3.30;99.90
20658;DHT22;10488;50.846;4.078;2023-12-04T10:00:46;3.20;99.90
20658;DHT22;10488;50.846;4.078;2023-12-04T10:03:12;3.20;99.90
20658;DHT22;10488;50.846;4.078;2023-12-04T10:05:43;3.20;99.90
20658;DHT22;10488;50.846;4.078;2023-12-04T10:08:10;3.10;99.90
20658;DHT22;10488;50.846;4.078;2023-12-04T10:10:36;3.10;99.90
20658;DHT22;10488;50.846;4.078;2023-12-04T10:13:01;3.00;99.90
20658;DHT22;10488;50.846;4.078;2023-12-04T10:15:28;3.10;99.90
20658;DHT22;10488;50.846;4.078;2023-12-04T10:17:54;3.10;99.90
20658;DHT22;10488;50.846;4.078;2023-12-04T10:20:20;3.10;99.90
20658;DHT22;10488;50.846;4.078;2023-12-04T10:22:54;3.10;99.90
20658;DHT22;10488;50.846;4.078;2023-12-04T10:25:20;3.10;99.90
20658;DHT22;10488;50.846;4.078;2023-12-04T10:27:46;3.10;99.90
20658;DHT22;10488;50.846;4.078;2023-12-04T10:30:26;3.10;99.90
20658;DHT22;10488;50.846;4.078;2023-12-04T10:32:58;3.20;99.90
20658;DHT22;10488;50.846;4.078;2023-12-04T10:35:29;3.20;99.90
20658;DHT22;10488;50.846;4.078;2023-12-04T10:37:56;3.20;99.90
20658;DHT22;10488;50.846;4.078;2023-12-04T10:40:29;3.30;99.90
20658;DHT22;10488;50.846;4.078;2023-12-04T10:45:39;3.30;99.90
20658;DHT22;10488;50.846;4.078;2023-12-04T10:48:05;3.30;99.90
20658;DHT22;10488;50.846;4.078;2023-12-04T10:50:35;3.40;99.90
20658;DHT22;10488;50.846;4.078;2023-12-04T10:53:04;3.40;99.90
20658;DHT22;10488;50.846;4.078;2023-12-04T10:55:33;3.40;99.90
20658;DHT22;10488;50.846;4.078;2023-12-04T10:58:08;3.40;99.90
20658;DHT22;10488;50.846;4.078;2023-12-04T11:00:36;3.50;99.90
20658;DHT22;10488;50.846;4.078;2023-12-04T11:03:28;3.60;99.90
20658;DHT22;10488;50.846;4.078;2023-12-04T11:06:00;3.70;99.90
20658;DHT22;10488;50.846;4.078;2023-12-04T11:08:29;3.70;99.90
20658;DHT22;10488;50.846;4.078;2023-12-04T11:11:00;3.70;99.90
20658;DHT22;10488;50.846;4.078;2023-12-04T11:13:28;3.70;99.90
20658;DHT22;10488;50.846;4.078;2023-12-04T11:16:01;3.70;99.90
20658;DHT22;10488;50.846;4.078;2023-12-04T11:18:29;3.80;99.90
20658;DHT22;10488;50.846;4.078;2023-12-04T11:21:02;3.90;99.90
20658;DHT22;10488;50.846;4.078;2023-12-04T11:23:30;3.80;99.90
20658;DHT22;10488;50.846;4.078;2023-12-04T11:25:57;3.80;99.90
20658;DHT22;10488;50.846;4.078;2023-12-04T11:28:23;3.90;99.90
20658;DHT22;10488;50.846;4.078;2023-12-04T11:30:50;4.00;99.90
20658;DHT22;10488;50.846;4.078;2023-12-04T11:33:17;4.10;99.90
20658;DHT22;10488;50.846;4.078;2023-12-04T11:35:44;4.10;99.90
20658;DHT22;10488;50.846;4.078;2023-12-04T11:38:13;4.10;99.90
20658;DHT22;10488;50.846;4.078;2023-12-04T11:40:40;4.10;99.90
20658;DHT22;10488;50.846;4.078;2023-12-04T11:43:27;4.00;99.90
20658;DHT22;10488;50.846;4.078;2023-12-04T11:45:53;4.10;99.90
20658;DHT22;10488;50.846;4.078;2023-12-04T11:48:28;4.00;99.90
20658;DHT22;10488;50.846;4.078;2023-12-04T11:50:56;4.10;99.90
20658;DHT22;10488;50.846;4.078;2023-12-04T11:53:22;4.10;99.90
20658;DHT22;10488;50.846;4.078;2023-12-04T11:55:48;4.10;99.90
20658;DHT22;10488;50.846;4.078;2023-12-04T11:58:16;4.10;99.90
20658;DHT22;10488;50.846;4.078;2023-12-04T12:00:42;4.10;99.90
20658;DHT22;10488;50.846;4.078;2023-12-04T12:03:09;4.10;99.90
20658;DHT22;10488;50.846;4.078;2023-12-04T12:05:38;4.10;99.90
20658;DHT22;10488;50.846;4.078;2023-12-04T12:08:09;4.10;99.90
20658;DHT22;10488;50.846;4.078;2023-12-04T12:10:34;4.10;99.90
20658;DHT22;10488;50.846;4.078;2023-12-04T12:13:00;4.20;99.90
20658;DHT22;10488;50.846;4.078;2023-12-04T12:15:27;4.10;99.90
20658;DHT22;10488;50.846;4.078;2023-12-04T12:17:53;4.20;99.90
20658;DHT22;10488;50.846;4.078;2023-12-04T12:20:19;4.20;99.90
20658;DHT22;10488;50.846;4.078;2023-12-04T12:22:48;4.20;99.90
20658;DHT22;10488;50.846;4.078;2023-12-04T12:25:15;4.10;99.90
20658;DHT22;10488;50.846;4.078;2023-12-04T12:27:41;4.10;99.90
20658;DHT22;10488;50.846;4.078;2023-12-04T12:30:08;4.10;99.90
20658;DHT22;10488;50.846;4.078;2023-12-04T12:32:34;4.10;99.90
20658;DHT22;10488;50.846;4.078;2023-12-04T12:35:01;4.10;99.90
20658;DHT22;10488;50.846;4.078;2023-12-04T12:37:27;4.10;99.90
20658;DHT22;10488;50.846;4.078;2023-12-04T12:39:53;4.10;99.90
20658;DHT22;10488;50.846;4.078;2023-12-04T12:42:26;4.10;99.90
20658;DHT22;10488;50.846;4.078;2023-12-04T12:44:53;4.10;99.90
20658;DHT22;10488;50.846;4.078;2023-12-04T12:47:19;4.20;99.90
20658;DHT22;10488;50.846;4.078;2023-12-04T12:49:45;4.20;99.90
20658;DHT22;10488;50.846;4.078;2023-12-04T12:52:11;4.20;99.90
20658;DHT22;10488;50.846;4.078;2023-12-04T12:54:40;4.30;99.90
20658;DHT22;10488;50.846;4.078;2023-12-04T12:57:06;4.30;99.90
20658;DHT22;10488;50.846;4.078;2023-12-04T12:59:33;4.40;99.90
20658;DHT22;10488;50.846;4.078;2023-12-04T13:01:59;4.40;99.90
20658;DHT22;10488;50.846;4.078;2023-12-04T13:04:37;4.30;99.90
20658;DHT22;10488;50.846;4.078;2023-12-04T13:07:03;4.30;99.90
20658;DHT22;10488;50.846;4.078;2023-12-04T13:09:31;4.30;99.90
20658;DHT22;10488;50.846;4.078;2023-12-04T13:11:57;4.30;99.90
20658;DHT22;10488;50.846;4.078;2023-12-04T13:14:23;4.30;99.90
20658;DHT22;10488;50.846;4.078;2023-12-04T13:16:50;4.30;99.90
20658;DHT22;10488;50.846;4.078;2023-12-04T13:19:15;4.40;99.90
20658;DHT22;10488;50.846;4.078;2023-12-04T13:21:43;4.40;99.90
20658;DHT22;10488;50.846;4.078;2023-12-04T13:24:10;4.40;99.90
20658;DHT22;10488;50.846;4.078;2023-12-04T13:26:36;4.40;99.90
20658;DHT22;10488;50.846;4.078;2023-12-04T13:29:02;4.50;99.90
20658;DHT22;10488;50.846;4.078;2023-12-04T13:31:28;4.50;99.90
20658;DHT22;10488;50.846;4.078;2023-12-04T13:33:53;4.60;99.90
20658;DHT22;10488;50.846;4.078;2023-12-04T13:36:19;4.60;99.90
20658;DHT22;10488;50.846;4.078;2023-12-04T13:38:45;4.60;99.90
20658;DHT22;10488;50.846;4.078;2023-12-04T13:41:11;4.60;99.90
20658;DHT22;10488;50.846;4.078;2023-12-04T13:43:55;4.60;99.90
20658;DHT22;10488;50.846;4.078;2023-12-04T13:46:22;4.60;99.90
20658;DHT22;10488;50.846;4.078;2023-12-04T13:48:48;4.70;99.90
20658;DHT22;10488;50.846;4.078;2023-12-04T13:51:14;4.70;99.90
20658;DHT22;10488;50.846;4.078;2023-12-04T13:53:40;4.70;99.90
20658;DHT22;10488;50.846;4.078;2023-12-04T13:56:11;4.70;99.90
20658;DHT22;10488;50.846;4.078;2023-12-04T13:58:37;4.70;99.90
20658;DHT22;10488;50.846;4.078;2023-12-04T14:01:10;4.70;99.90
20658;DHT22;10488;50.846;4.078;2023-12-04T14:03:41;4.70;99.90
20658;DHT22;10488;50.846;4.078;2023-12-04T14:06:07;4.70;99.90
20658;DHT22;10488;50.846;4.078;2023-12-04T14:08:33;4.80;99.90
20658;DHT22;10488;50.846;4.078;2023-12-04T14:10:59;4.80;99.90
20658;DHT22;10488;50.846;4.078;2023-12-04T14:13:24;4.80;99.90
20658;DHT22;10488;50.846;4.078;2023-12-04T14:15:50;4.80;99.90
20658;DHT22;10488;50.846;4.078;2023-12-04T14:18:16;4.70;99.90
20658;DHT22;10488;50.846;4.078;2023-12-04T14:20:42;4.80;99.90
20658;DHT22;10488;50.846;4.078;2023-12-04T14:23:08;4.80;99.90
20658;DHT22;10488;50.846;4.078;2023-12-04T14:25:34;4.80;99.90
20658;DHT22;10488;50.846;4.078;2023-12-04T14:27:59;4.80;99.90
20658;DHT22;10488;50.846;4.078;2023-12-04T14:30:26;4.90;99.90
20658;DHT22;10488;50.846;4.078;2023-12-04T14:32:53;4.80;99.90
20658;DHT22;10488;50.846;4.078;2023-12-04T14:35:18;4.80;99.90
20658;DHT22;10488;50.846;4.078;2023-12-04T14:37:44;4.90;99.90
20658;DHT22;10488;50.846;4.078;2023-12-04T14:40:12;4.90;99.90
20658;DHT22;10488;50.846;4.078;2023-12-04T14:42:39;4.90;99.90
20658;DHT22;10488;50.846;4.078;2023-12-04T14:45:05;5.00;99.90
20658;DHT22;10488;50.846;4.078;2023-12-04T14:47:31;5.00;99.90
20658;DHT22;10488;50.846;4.078;2023-12-04T14:49:56;4.90;99.90
20658;DHT22;10488;50.846;4.078;2023-12-04T14:52:22;4.90;99.90
20658;DHT22;10488;50.846;4.078;2023-12-04T14:54:48;5.00;99.90
20658;DHT22;10488;50.846;4.078;2023-12-04T14:57:32;4.90;99.90
20658;DHT22;10488;50.846;4.078;2023-12-04T15:00:10;5.00;99.90
20658;DHT22;10488;50.846;4.078;2023-12-04T15:02:55;5.00;99.90
20658;DHT22;10488;50.846;4.078;2023-12-04T15:05:39;5.00;99.90
20658;DHT22;10488;50.846;4.078;2023-12-04T15:08:23;4.90;99.90
20658;DHT22;10488;50.846;4.078;2023-12-04T15:10:49;4.90;99.90
20658;DHT22;10488;50.846;4.078;2023-12-04T15:13:33;4.80;99.90
20658;DHT22;10488;50.846;4.078;2023-12-04T15:16:05;4.80;99.90
20658;DHT22;10488;50.846;4.078;2023-12-04T15:18:49;4.90;99.90
20658;DHT22;10488;50.846;4.078;2023-12-04T15:21:17;5.00;99.90
20658;DHT22;10488;50.846;4.078;2023-12-04T15:23:43;5.00;99.90
20658;DHT22;10488;50.846;4.078;2023-12-04T15:26:09;5.00;99.90
20658;DHT22;10488;50.846;4.078;2023-12-04T15:28:36;5.00;99.90
20658;DHT22;10488;50.846;4.078;2023-12-04T15:31:02;4.90;99.90
20658;DHT22;10488;50.846;4.078;2023-12-04T15:33:28;4.80;99.90
20658;DHT22;10488;50.846;4.078;2023-12-04T15:35:56;4.90;99.90
20658;DHT22;10488;50.846;4.078;2023-12-04T15:38:22;5.00;99.90
20658;DHT22;10488;50.846;4.078;2023-12-04T15:40:48;5.00;99.90
20658;DHT22;10488;50.846;4.078;2023-12-04T15:43:14;5.00;99.90
20658;DHT22;10488;50.846;4.078;2023-12-04T15:45:39;5.00;99.90